sensor_id;sensor_type;location;lat;lon;timestamp;P1;durP1;ratioP1;P2;durP2;ratioP2
45764;SDS011;31474;45.332;10.230;2022-08-25T00:00:45;9.32;;;8.38;;
45764;SDS011;31474;45.332;10.230;2022-08-25T00:03:13;11.80;;;8.25;;
45764;SDS011;31474;45.332;10.230;2022-08-25T00:05:39;9.18;;;7.80;;
45764;SDS011;31474;45.332;10.230;2022-08-25T00:08:05;10.27;;;8.90;;
45764;SDS011;31474;45.332;10.230;2022-08-25T00:10:35;10.82;;;8.68;;
45764;SDS011;31474;45.332;10.230;2022-08-25T00:13:03;9.85;;;8.85;;
45764;SDS011;31474;45.332;10.230;2022-08-25T00:15:29;11.30;;;9.25;;
45764;SDS011;31474;45.332;10.230;2022-08-25T00:17:56;11.52;;;8.90;;
45764;SDS011;31474;45.332;10.230;2022-08-25T00:20:23;11.45;;;9.43;;
45764;SDS011;31474;45.332;10.230;2022-08-25T00:22:49;12.50;;;8.73;;
45764;SDS011;31474;45.332;10.230;2022-08-25T00:25:15;11.60;;;8.43;;
45764;SDS011;31474;45.332;10.230;2022-08-25T00:27:41;9.95;;;8.95;;
45764;SDS011;31474;45.332;10.230;2022-08-25T00:30:08;11.40;;;10.20;;
45764;SDS011;31474;45.332;10.230;2022-08-25T00:32:35;10.15;;;9.15;;
45764;SDS011;31474;45.332;10.230;2022-08-25T00:35:01;11.63;;;8.52;;
45764;SDS011;31474;45.332;10.230;2022-08-25T00:37:27;10.55;;;9.40;;
45764;SDS011;31474;45.332;10.230;2022-08-25T00:39:52;11.88;;;9.07;;
45764;SDS011;31474;45.332;10.230;2022-08-25T00:42:21;11.95;;;10.20;;
45764;SDS011;31474;45.332;10.230;2022-08-25T00:44:47;11.07;;;9.43;;
45764;SDS011;31474;45.332;10.230;2022-08-25T00:47:14;11.45;;;9.65;;
45764;SDS011;31474;45.332;10.230;2022-08-25T00:49:47;12.63;;;9.50;;
45764;SDS011;31474;45.332;10.230;2022-08-25T00:52:17;10.07;;;8.75;;
45764;SDS011;31474;45.332;10.230;2022-08-25T00:54:48;11.88;;;9.82;;
45764;SDS011;31474;45.332;10.230;2022-08-25T00:57:14;12.13;;;9.93;;
45764;SDS011;31474;45.332;10.230;2022-08-25T00:59:43;10.38;;;9.30;;
45764;SDS011;31474;45.332;10.230;2022-08-25T01:02:10;12.57;;;9.15;;
45764;SDS011;31474;45.332;10.230;2022-08-25T01:04:37;15.05;;;10.52;;
45764;SDS011;31474;45.332;10.230;2022-08-25T01:07:03;14.95;;;10.40;;
45764;SDS011;31474;45.332;10.230;2022-08-25T01:09:30;10.73;;;9.63;;
45764;SDS011;31474;45.332;10.230;2022-08-25T01:11:57;10.73;;;8.93;;
45764;SDS011;31474;45.332;10.230;2022-08-25T01:14:24;13.70;;;9.60;;
45764;SDS011;31474;45.332;10.230;2022-08-25T01:16:50;11.02;;;9.85;;
45764;SDS011;31474;45.332;10.230;2022-08-25T01:19:17;10.38;;;9.38;;
45764;SDS011;31474;45.332;10.230;2022-08-25T01:21:47;12.32;;;9.20;;
45764;SDS011;31474;45.332;10.230;2022-08-25T01:24:25;11.52;;;9.13;;
45764;SDS011;31474;45.332;10.230;2022-08-25T01:27:01;9.75;;;8.75;;
45764;SDS011;31474;45.332;10.230;2022-08-25T01:29:28;11.15;;;10.00;;
45764;SDS011;31474;45.332;10.230;2022-08-25T01:31:58;13.02;;;9.55;;
45764;SDS011;31474;45.332;10.230;2022-08-25T01:34:27;12.63;;;8.85;;
45764;SDS011;31474;45.332;10.230;2022-08-25T01:36:55;14.30;;;9.43;;
45764;SDS011;31474;45.332;10.230;2022-08-25T01:39:22;10.57;;;8.88;;
45764;SDS011;31474;45.332;10.230;2022-08-25T01:44:40;9.80;;;8.82;;
45764;SDS011;31474;45.332;10.230;2022-08-25T01:47:08;12.25;;;9.13;;
45764;SDS011;31474;45.332;10.230;2022-08-25T01:49:35;9.30;;;8.07;;
45764;SDS011;31474;45.332;10.230;2022-08-25T01:54:26;11.85;;;9.20;;
45764;SDS011;31474;45.332;10.230;2022-08-25T01:56:52;10.48;;;9.38;;
45764;SDS011;31474;45.332;10.230;2022-08-25T01:59:18;13.10;;;8.40;;
45764;SDS011;31474;45.332;10.230;2022-08-25T02:01:45;11.98;;;9.25;;
45764;SDS011;31474;45.332;10.230;2022-08-25T02:04:11;10.57;;;8.90;;
45764;SDS011;31474;45.332;10.230;2022-08-25T02:06:36;11.38;;;9.57;;
45764;SDS011;31474;45.332;10.230;2022-08-25T02:09:04;10.13;;;8.77;;
45764;SDS011;31474;45.332;10.230;2022-08-25T02:11:39;10.00;;;8.85;;
45764;SDS011;31474;45.332;10.230;2022-08-25T02:14:07;10.68;;;9.57;;
45764;SDS011;31474;45.332;10.230;2022-08-25T02:16:36;10.40;;;9.40;;
45764;SDS011;31474;45.332;10.230;2022-08-25T02:19:04;9.38;;;8.38;;
45764;SDS011;31474;45.332;10.230;2022-08-25T02:21:31;10.68;;;9.57;;
45764;SDS011;31474;45.332;10.230;2022-08-25T02:23:57;10.95;;;9.82;;
45764;SDS011;31474;45.332;10.230;2022-08-25T02:26:23;13.77;;;9.38;;
45764;SDS011;31474;45.332;10.230;2022-08-25T02:28:49;10.38;;;8.57;;
45764;SDS011;31474;45.332;10.230;2022-08-25T02:31:16;9.75;;;8.82;;
45764;SDS011;31474;45.332;10.230;2022-08-25T02:33:44;13.20;;;9.43;;
45764;SDS011;31474;45.332;10.230;2022-08-25T02:36:10;9.88;;;8.15;;
45764;SDS011;31474;45.332;10.230;2022-08-25T02:38:36;9.63;;;8.57;;
45764;SDS011;31474;45.332;10.230;2022-08-25T02:41:07;9.10;;;8.05;;
45764;SDS011;31474;45.332;10.230;2022-08-25T02:43:36;10.25;;;7.78;;
45764;SDS011;31474;45.332;10.230;2022-08-25T02:46:03;9.75;;;8.55;;
45764;SDS011;31474;45.332;10.230;2022-08-25T02:48:29;11.73;;;8.30;;
45764;SDS011;31474;45.332;10.230;2022-08-25T02:50:57;12.18;;;9.05;;
45764;SDS011;31474;45.332;10.230;2022-08-25T02:53:25;11.90;;;8.65;;
45764;SDS011;31474;45.332;10.230;2022-08-25T02:55:51;11.82;;;8.82;;
45764;SDS011;31474;45.332;10.230;2022-08-25T02:58:17;9.90;;;8.77;;
45764;SDS011;31474;45.332;10.230;2022-08-25T03:00:43;9.75;;;8.50;;
45764;SDS011;31474;45.332;10.230;2022-08-25T03:03:10;9.98;;;8.40;;
45764;SDS011;31474;45.332;10.230;2022-08-25T03:05:36;11.55;;;8.38;;
45764;SDS011;31474;45.332;10.230;2022-08-25T03:08:03;9.25;;;8.35;;
45764;SDS011;31474;45.332;10.230;2022-08-25T03:10:30;13.73;;;7.90;;
45764;SDS011;31474;45.332;10.230;2022-08-25T03:12:56;10.75;;;8.45;;
45764;SDS011;31474;45.332;10.230;2022-08-25T03:15:22;8.82;;;7.65;;
45764;SDS011;31474;45.332;10.230;2022-08-25T03:17:49;10.07;;;8.45;;
45764;SDS011;31474;45.332;10.230;2022-08-25T03:20:16;9.73;;;8.30;;
45764;SDS011;31474;45.332;10.230;2022-08-25T03:22:42;9.43;;;7.85;;
45764;SDS011;31474;45.332;10.230;2022-08-25T03:25:08;12.05;;;8.85;;
45764;SDS011;31474;45.332;10.230;2022-08-25T03:27:53;8.88;;;7.97;;
45764;SDS011;31474;45.332;10.230;2022-08-25T03:30:19;9.15;;;8.25;;
45764;SDS011;31474;45.332;10.230;2022-08-25T03:32:45;11.38;;;8.38;;
45764;SDS011;31474;45.332;10.230;2022-08-25T03:35:11;11.38;;;8.88;;
45764;SDS011;31474;45.332;10.230;2022-08-25T03:37:37;11.25;;;8.77;;
45764;SDS011;31474;45.332;10.230;2022-08-25T03:40:03;9.43;;;8.57;;
45764;SDS011;31474;45.332;10.230;2022-08-25T03:42:31;10.35;;;9.00;;
45764;SDS011;31474;45.332;10.230;2022-08-25T03:44:57;11.68;;;8.35;;
45764;SDS011;31474;45.332;10.230;2022-08-25T03:47:23;9.75;;;8.75;;
45764;SDS011;31474;45.332;10.230;2022-08-25T03:49:50;10.90;;;8.70;;
45764;SDS011;31474;45.332;10.230;2022-08-25T03:52:16;10.15;;;8.73;;
45764;SDS011;31474;45.332;10.230;2022-08-25T03:54:42;9.45;;;8.07;;
45764;SDS011;31474;45.332;10.230;2022-08-25T03:57:09;12.63;;;9.82;;
45764;SDS011;31474;45.332;10.230;2022-08-25T03:59:35;11.07;;;8.70;;
45764;SDS011;31474;45.332;10.230;2022-08-25T04:02:03;10.82;;;9.05;;
45764;SDS011;31474;45.332;10.230;2022-08-25T04:04:29;10.07;;;9.00;;
45764;SDS011;31474;45.332;10.230;2022-08-25T04:06:55;14.25;;;9.73;;
45764;SDS011;31474;45.332;10.230;2022-08-25T04:09:22;10.13;;;8.88;;
45764;SDS011;31474;45.332;10.230;2022-08-25T04:11:49;12.18;;;8.70;;
45764;SDS011;31474;45.332;10.230;2022-08-25T04:14:15;10.13;;;8.82;;
45764;SDS011;31474;45.332;10.230;2022-08-25T04:19:26;11.23;;;8.57;;
45764;SDS011;31474;45.332;10.230;2022-08-25T04:21:51;10.15;;;9.18;;
45764;SDS011;31474;45.332;10.230;2022-08-25T04:24:18;9.95;;;8.85;;
45764;SDS011;31474;45.332;10.230;2022-08-25T04:26:47;10.43;;;8.23;;
45764;SDS011;31474;45.332;10.230;2022-08-25T04:29:15;11.32;;;8.63;;
45764;SDS011;31474;45.332;10.230;2022-08-25T04:31:43;10.00;;;8.43;;
45764;SDS011;31474;45.332;10.230;2022-08-25T04:34:14;11.55;;;8.93;;
45764;SDS011;31474;45.332;10.230;2022-08-25T04:36:40;11.13;;;9.32;;
45764;SDS011;31474;45.332;10.230;2022-08-25T04:39:06;11.70;;;9.35;;
45764;SDS011;31474;45.332;10.230;2022-08-25T04:41:32;13.68;;;8.27;;
45764;SDS011;31474;45.332;10.230;2022-08-25T04:43:59;13.75;;;8.60;;
45764;SDS011;31474;45.332;10.230;2022-08-25T04:46:26;12.00;;;9.05;;
45764;SDS011;31474;45.332;10.230;2022-08-25T04:48:55;10.38;;;9.38;;
45764;SDS011;31474;45.332;10.230;2022-08-25T04:51:24;13.32;;;9.45;;
45764;SDS011;31474;45.332;10.230;2022-08-25T04:53:53;14.38;;;9.68;;
45764;SDS011;31474;45.332;10.230;2022-08-25T04:56:20;10.48;;;8.68;;
45764;SDS011;31474;45.332;10.230;2022-08-25T04:58:50;12.00;;;9.50;;
45764;SDS011;31474;45.332;10.230;2022-08-25T05:01:18;12.70;;;9.38;;
45764;SDS011;31474;45.332;10.230;2022-08-25T05:03:46;12.05;;;9.80;;
45764;SDS011;31474;45.332;10.230;2022-08-25T05:06:16;10.65;;;9.63;;
45764;SDS011;31474;45.332;10.230;2022-08-25T05:08:42;14.10;;;9.55;;
45764;SDS011;31474;45.332;10.230;2022-08-25T05:11:09;14.63;;;9.75;;
45764;SDS011;31474;45.332;10.230;2022-08-25T05:13:38;11.98;;;9.95;;
45764;SDS011;31474;45.332;10.230;2022-08-25T05:16:05;10.95;;;9.25;;
45764;SDS011;31474;45.332;10.230;2022-08-25T05:18:32;11.65;;;9.90;;
45764;SDS011;31474;45.332;10.230;2022-08-25T05:21:05;10.77;;;9.65;;
45764;SDS011;31474;45.332;10.230;2022-08-25T05:23:38;13.63;;;10.70;;
45764;SDS011;31474;45.332;10.230;2022-08-25T05:26:07;12.40;;;9.98;;
45764;SDS011;31474;45.332;10.230;2022-08-25T05:28:34;22.33;;;10.35;;
45764;SDS011;31474;45.332;10.230;2022-08-25T05:31:01;13.38;;;8.95;;
45764;SDS011;31474;45.332;10.230;2022-08-25T05:33:28;16.08;;;9.73;;
45764;SDS011;31474;45.332;10.230;2022-08-25T05:35:54;10.45;;;8.82;;
45764;SDS011;31474;45.332;10.230;2022-08-25T05:38:20;13.85;;;8.75;;
45764;SDS011;31474;45.332;10.230;2022-08-25T05:40:47;11.30;;;8.82;;
45764;SDS011;31474;45.332;10.230;2022-08-25T05:43:16;9.65;;;8.23;;
45764;SDS011;31474;45.332;10.230;2022-08-25T05:45:41;9.45;;;8.48;;
45764;SDS011;31474;45.332;10.230;2022-08-25T05:48:07;9.85;;;7.47;;
45764;SDS011;31474;45.332;10.230;2022-08-25T05:50:33;9.48;;;7.45;;
45764;SDS011;31474;45.332;10.230;2022-08-25T05:52:58;9.38;;;8.40;;
45764;SDS011;31474;45.332;10.230;2022-08-25T05:55:24;9.00;;;7.93;;
45764;SDS011;31474;45.332;10.230;2022-08-25T05:57:50;12.82;;;7.35;;
45764;SDS011;31474;45.332;10.230;2022-08-25T06:00:15;10.90;;;7.10;;
45764;SDS011;31474;45.332;10.230;2022-08-25T06:02:41;7.88;;;7.00;;
45764;SDS011;31474;45.332;10.230;2022-08-25T06:05:17;12.10;;;7.90;;
45764;SDS011;31474;45.332;10.230;2022-08-25T06:07:46;20.33;;;8.13;;
45764;SDS011;31474;45.332;10.230;2022-08-25T06:10:13;12.50;;;7.72;;
45764;SDS011;31474;45.332;10.230;2022-08-25T06:12:40;20.83;;;7.70;;
45764;SDS011;31474;45.332;10.230;2022-08-25T06:15:11;22.77;;;7.38;;
45764;SDS011;31474;45.332;10.230;2022-08-25T06:17:38;10.77;;;7.40;;
45764;SDS011;31474;45.332;10.230;2022-08-25T06:20:06;13.80;;;7.72;;
45764;SDS011;31474;45.332;10.230;2022-08-25T06:22:33;12.35;;;8.27;;
45764;SDS011;31474;45.332;10.230;2022-08-25T06:24:59;9.82;;;7.53;;
45764;SDS011;31474;45.332;10.230;2022-08-25T06:27:25;11.65;;;8.48;;
45764;SDS011;31474;45.332;10.230;2022-08-25T06:29:51;10.18;;;7.25;;
45764;SDS011;31474;45.332;10.230;2022-08-25T06:32:16;8.65;;;7.50;;
45764;SDS011;31474;45.332;10.230;2022-08-25T06:34:42;10.10;;;7.93;;
45764;SDS011;31474;45.332;10.230;2022-08-25T06:37:07;9.55;;;7.65;;
45764;SDS011;31474;45.332;10.230;2022-08-25T06:39:33;12.40;;;7.88;;
45764;SDS011;31474;45.332;10.230;2022-08-25T06:41:59;9.48;;;7.32;;
45764;SDS011;31474;45.332;10.230;2022-08-25T06:44:25;15.77;;;8.18;;
45764;SDS011;31474;45.332;10.230;2022-08-25T06:46:51;10.32;;;7.32;;
45764;SDS011;31474;45.332;10.230;2022-08-25T06:49:17;9.73;;;7.78;;
45764;SDS011;31474;45.332;10.230;2022-08-25T06:51:43;10.98;;;7.70;;
45764;SDS011;31474;45.332;10.230;2022-08-25T06:54:10;12.75;;;7.50;;
45764;SDS011;31474;45.332;10.230;2022-08-25T06:56:36;12.60;;;8.32;;
45764;SDS011;31474;45.332;10.230;2022-08-25T06:59:04;14.88;;;7.43;;
45764;SDS011;31474;45.332;10.230;2022-08-25T07:01:31;19.67;;;8.48;;
45764;SDS011;31474;45.332;10.230;2022-08-25T07:03:58;9.15;;;6.75;;
45764;SDS011;31474;45.332;10.230;2022-08-25T07:06:28;14.18;;;8.07;;
45764;SDS011;31474;45.332;10.230;2022-08-25T07:08:55;13.18;;;8.25;;
45764;SDS011;31474;45.332;10.230;2022-08-25T07:11:21;15.57;;;8.25;;
45764;SDS011;31474;45.332;10.230;2022-08-25T07:13:48;12.00;;;8.73;;
45764;SDS011;31474;45.332;10.230;2022-08-25T07:16:15;10.63;;;8.02;;
45764;SDS011;31474;45.332;10.230;2022-08-25T07:18:42;8.88;;;7.07;;
45764;SDS011;31474;45.332;10.230;2022-08-25T07:21:09;8.00;;;6.53;;
45764;SDS011;31474;45.332;10.230;2022-08-25T07:23:36;8.23;;;6.30;;
45764;SDS011;31474;45.332;10.230;2022-08-25T07:26:12;10.80;;;6.82;;
45764;SDS011;31474;45.332;10.230;2022-08-25T07:28:40;10.50;;;7.55;;
45764;SDS011;31474;45.332;10.230;2022-08-25T07:31:06;17.63;;;8.43;;
45764;SDS011;31474;45.332;10.230;2022-08-25T07:33:32;14.90;;;8.38;;
45764;SDS011;31474;45.332;10.230;2022-08-25T07:35:58;8.45;;;7.63;;
45764;SDS011;31474;45.332;10.230;2022-08-25T07:38:23;12.88;;;7.65;;
45764;SDS011;31474;45.332;10.230;2022-08-25T07:40:49;15.57;;;7.97;;
45764;SDS011;31474;45.332;10.230;2022-08-25T07:46:40;13.77;;;7.78;;
45764;SDS011;31474;45.332;10.230;2022-08-25T07:49:06;18.35;;;7.68;;
45764;SDS011;31474;45.332;10.230;2022-08-25T07:51:32;15.77;;;7.45;;
45764;SDS011;31474;45.332;10.230;2022-08-25T07:53:58;16.83;;;7.95;;
45764;SDS011;31474;45.332;10.230;2022-08-25T07:56:24;8.57;;;7.38;;
45764;SDS011;31474;45.332;10.230;2022-08-25T07:58:50;12.88;;;7.25;;
45764;SDS011;31474;45.332;10.230;2022-08-25T08:01:16;11.48;;;6.70;;
45764;SDS011;31474;45.332;10.230;2022-08-25T08:03:44;7.25;;;5.70;;
45764;SDS011;31474;45.332;10.230;2022-08-25T08:06:11;10.40;;;5.88;;
45764;SDS011;31474;45.332;10.230;2022-08-25T08:08:41;9.02;;;5.53;;
45764;SDS011;31474;45.332;10.230;2022-08-25T08:11:16;8.23;;;4.65;;
45764;SDS011;31474;45.332;10.230;2022-08-25T08:13:44;12.93;;;5.45;;
45764;SDS011;31474;45.332;10.230;2022-08-25T08:16:12;11.60;;;4.60;;
45764;SDS011;31474;45.332;10.230;2022-08-25T08:21:33;8.32;;;4.97;;
45764;SDS011;31474;45.332;10.230;2022-08-25T08:24:01;7.55;;;5.43;;
45764;SDS011;31474;45.332;10.230;2022-08-25T08:26:27;11.80;;;4.50;;
45764;SDS011;31474;45.332;10.230;2022-08-25T08:28:54;14.60;;;4.15;;
45764;SDS011;31474;45.332;10.230;2022-08-25T08:31:21;6.25;;;3.58;;
45764;SDS011;31474;45.332;10.230;2022-08-25T08:33:48;5.88;;;3.60;;
45764;SDS011;31474;45.332;10.230;2022-08-25T08:36:15;9.10;;;3.97;;
45764;SDS011;31474;45.332;10.230;2022-08-25T08:38:41;5.20;;;3.38;;
45764;SDS011;31474;45.332;10.230;2022-08-25T08:46:44;6.63;;;3.80;;
45764;SDS011;31474;45.332;10.230;2022-08-25T08:49:29;3.33;;;2.65;;
45764;SDS011;31474;45.332;10.230;2022-08-25T08:55:33;5.97;;;3.83;;
45764;SDS011;31474;45.332;10.230;2022-08-25T08:58:06;4.38;;;3.47;;
45764;SDS011;31474;45.332;10.230;2022-08-25T09:00:41;6.78;;;3.03;;
45764;SDS011;31474;45.332;10.230;2022-08-25T09:03:22;3.45;;;2.10;;
45764;SDS011;31474;45.332;10.230;2022-08-25T09:06:19;4.05;;;2.42;;
45764;SDS011;31474;45.332;10.230;2022-08-25T09:08:56;4.13;;;2.78;;
45764;SDS011;31474;45.332;10.230;2022-08-25T09:19:49;4.93;;;3.75;;
45764;SDS011;31474;45.332;10.230;2022-08-25T09:30:22;3.58;;;2.70;;
45764;SDS011;31474;45.332;10.230;2022-08-25T09:32:49;6.50;;;4.10;;
45764;SDS011;31474;45.332;10.230;2022-08-25T09:35:30;6.65;;;3.28;;
45764;SDS011;31474;45.332;10.230;2022-08-25T09:38:08;5.63;;;3.22;;
45764;SDS011;31474;45.332;10.230;2022-08-25T09:40:37;7.97;;;2.95;;
45764;SDS011;31474;45.332;10.230;2022-08-25T09:43:16;5.68;;;2.97;;
45764;SDS011;31474;45.332;10.230;2022-08-25T09:51:19;11.30;;;3.33;;
45764;SDS011;31474;45.332;10.230;2022-08-25T09:59:28;3.88;;;2.95;;
45764;SDS011;31474;45.332;10.230;2022-08-25T10:04:56;3.90;;;2.88;;
45764;SDS011;31474;45.332;10.230;2022-08-25T10:10:04;3.57;;;2.40;;
45764;SDS011;31474;45.332;10.230;2022-08-25T10:12:43;4.43;;;2.80;;
45764;SDS011;31474;45.332;10.230;2022-08-25T10:15:24;2.95;;;2.22;;
45764;SDS011;31474;45.332;10.230;2022-08-25T10:18:41;3.38;;;1.63;;
45764;SDS011;31474;45.332;10.230;2022-08-25T10:21:03;3.70;;;2.10;;
45764;SDS011;31474;45.332;10.230;2022-08-25T10:23:33;3.33;;;1.77;;
45764;SDS011;31474;45.332;10.230;2022-08-25T10:26:05;4.53;;;1.98;;
45764;SDS011;31474;45.332;10.230;2022-08-25T10:28:49;3.22;;;2.15;;
45764;SDS011;31474;45.332;10.230;2022-08-25T10:31:46;2.83;;;2.03;;
45764;SDS011;31474;45.332;10.230;2022-08-25T10:34:34;3.20;;;2.22;;
45764;SDS011;31474;45.332;10.230;2022-08-25T10:40:17;2.58;;;2.00;;
45764;SDS011;31474;45.332;10.230;2022-08-25T10:46:10;3.42;;;2.42;;
45764;SDS011;31474;45.332;10.230;2022-08-25T10:49:25;2.30;;;1.83;;
45764;SDS011;31474;45.332;10.230;2022-08-25T10:51:55;8.98;;;2.67;;
45764;SDS011;31474;45.332;10.230;2022-08-25T11:00:04;6.40;;;3.95;;
45764;SDS011;31474;45.332;10.230;2022-08-25T11:02:55;5.50;;;3.53;;
45764;SDS011;31474;45.332;10.230;2022-08-25T11:05:34;4.82;;;3.80;;
45764;SDS011;31474;45.332;10.230;2022-08-25T11:10:59;7.38;;;3.00;;
45764;SDS011;31474;45.332;10.230;2022-08-25T11:13:46;9.05;;;2.90;;
45764;SDS011;31474;45.332;10.230;2022-08-25T11:16:35;6.15;;;2.85;;
45764;SDS011;31474;45.332;10.230;2022-08-25T11:19:14;5.78;;;3.25;;
45764;SDS011;31474;45.332;10.230;2022-08-25T11:27:03;6.13;;;2.95;;
45764;SDS011;31474;45.332;10.230;2022-08-25T11:29:34;6.50;;;3.10;;
45764;SDS011;31474;45.332;10.230;2022-08-25T11:32:02;4.85;;;2.78;;
45764;SDS011;31474;45.332;10.230;2022-08-25T11:34:32;5.85;;;2.45;;
45764;SDS011;31474;45.332;10.230;2022-08-25T11:37:10;3.53;;;3.10;;
45764;SDS011;31474;45.332;10.230;2022-08-25T11:40:19;5.10;;;3.35;;
45764;SDS011;31474;45.332;10.230;2022-08-25T11:50:57;7.95;;;3.40;;
45764;SDS011;31474;45.332;10.230;2022-08-25T11:53:37;6.45;;;3.35;;
45764;SDS011;31474;45.332;10.230;2022-08-25T11:56:10;4.57;;;2.60;;
45764;SDS011;31474;45.332;10.230;2022-08-25T11:58:55;6.68;;;2.50;;
45764;SDS011;31474;45.332;10.230;2022-08-25T12:04:31;5.03;;;2.70;;
45764;SDS011;31474;45.332;10.230;2022-08-25T12:12:30;2.88;;;2.25;;
45764;SDS011;31474;45.332;10.230;2022-08-25T12:18:15;4.90;;;2.50;;
45764;SDS011;31474;45.332;10.230;2022-08-25T12:24:07;4.47;;;2.42;;
45764;SDS011;31474;45.332;10.230;2022-08-25T12:26:35;7.78;;;3.15;;
45764;SDS011;31474;45.332;10.230;2022-08-25T12:36:40;4.07;;;2.42;;
45764;SDS011;31474;45.332;10.230;2022-08-25T12:39:27;5.13;;;2.30;;
45764;SDS011;31474;45.332;10.230;2022-08-25T12:42:03;6.30;;;2.17;;
45764;SDS011;31474;45.332;10.230;2022-08-25T12:44:35;5.70;;;2.70;;
45764;SDS011;31474;45.332;10.230;2022-08-25T12:49:48;4.43;;;2.38;;
45764;SDS011;31474;45.332;10.230;2022-08-25T12:52:15;3.10;;;2.30;;
45764;SDS011;31474;45.332;10.230;2022-08-25T12:54:57;5.57;;;2.17;;
45764;SDS011;31474;45.332;10.230;2022-08-25T12:57:27;5.40;;;2.45;;
45764;SDS011;31474;45.332;10.230;2022-08-25T13:00:23;5.00;;;2.38;;
45764;SDS011;31474;45.332;10.230;2022-08-25T13:06:15;2.92;;;2.10;;
45764;SDS011;31474;45.332;10.230;2022-08-25T13:09:07;5.22;;;2.05;;
45764;SDS011;31474;45.332;10.230;2022-08-25T13:11:52;4.60;;;2.17;;
45764;SDS011;31474;45.332;10.230;2022-08-25T13:14:27;5.05;;;2.10;;
45764;SDS011;31474;45.332;10.230;2022-08-25T13:17:04;3.53;;;1.80;;
45764;SDS011;31474;45.332;10.230;2022-08-25T13:19:30;3.35;;;2.60;;
45764;SDS011;31474;45.332;10.230;2022-08-25T13:21:57;4.93;;;2.17;;
45764;SDS011;31474;45.332;10.230;2022-08-25T13:24:31;6.80;;;1.90;;
45764;SDS011;31474;45.332;10.230;2022-08-25T13:27:00;3.13;;;2.10;;
45764;SDS011;31474;45.332;10.230;2022-08-25T13:29:31;2.53;;;1.90;;
45764;SDS011;31474;45.332;10.230;2022-08-25T13:31:59;1.98;;;1.63;;
45764;SDS011;31474;45.332;10.230;2022-08-25T13:34:34;3.42;;;1.63;;
45764;SDS011;31474;45.332;10.230;2022-08-25T13:37:07;3.75;;;1.92;;
45764;SDS011;31474;45.332;10.230;2022-08-25T13:40:12;2.28;;;1.95;;
45764;SDS011;31474;45.332;10.230;2022-08-25T13:42:43;2.67;;;1.90;;
45764;SDS011;31474;45.332;10.230;2022-08-25T13:45:15;4.10;;;2.03;;
45764;SDS011;31474;45.332;10.230;2022-08-25T13:52:51;4.28;;;2.15;;
45764;SDS011;31474;45.332;10.230;2022-08-25T13:55:37;3.88;;;2.08;;
45764;SDS011;31474;45.332;10.230;2022-08-25T13:58:12;3.28;;;2.15;;
45764;SDS011;31474;45.332;10.230;2022-08-25T14:00:45;3.03;;;2.13;;
45764;SDS011;31474;45.332;10.230;2022-08-25T14:08:41;3.85;;;1.70;;
45764;SDS011;31474;45.332;10.230;2022-08-25T14:13:37;2.72;;;2.28;;
45764;SDS011;31474;45.332;10.230;2022-08-25T14:18:35;7.63;;;2.22;;
45764;SDS011;31474;45.332;10.230;2022-08-25T14:21:02;2.83;;;1.98;;
45764;SDS011;31474;45.332;10.230;2022-08-25T14:23:35;6.55;;;1.85;;
45764;SDS011;31474;45.332;10.230;2022-08-25T14:26:02;3.72;;;1.88;;
45764;SDS011;31474;45.332;10.230;2022-08-25T14:28:29;5.25;;;1.98;;
45764;SDS011;31474;45.332;10.230;2022-08-25T14:31:00;2.63;;;1.60;;
45764;SDS011;31474;45.332;10.230;2022-08-25T14:33:27;2.42;;;2.08;;
45764;SDS011;31474;45.332;10.230;2022-08-25T14:35:57;4.90;;;2.05;;
45764;SDS011;31474;45.332;10.230;2022-08-25T14:38:26;5.07;;;1.85;;
45764;SDS011;31474;45.332;10.230;2022-08-25T14:40:52;3.05;;;1.63;;
45764;SDS011;31474;45.332;10.230;2022-08-25T14:43:18;2.83;;;1.50;;
45764;SDS011;31474;45.332;10.230;2022-08-25T14:45:44;2.90;;;2.30;;
45764;SDS011;31474;45.332;10.230;2022-08-25T14:48:45;5.28;;;2.08;;
45764;SDS011;31474;45.332;10.230;2022-08-25T14:51:05;3.47;;;2.20;;
45764;SDS011;31474;45.332;10.230;2022-08-25T14:53:31;2.38;;;1.50;;
45764;SDS011;31474;45.332;10.230;2022-08-25T14:55:57;5.30;;;2.20;;
45764;SDS011;31474;45.332;10.230;2022-08-25T14:58:25;2.65;;;1.92;;
45764;SDS011;31474;45.332;10.230;2022-08-25T15:00:52;2.55;;;1.80;;
45764;SDS011;31474;45.332;10.230;2022-08-25T15:03:24;5.63;;;1.83;;
45764;SDS011;31474;45.332;10.230;2022-08-25T15:05:54;2.90;;;2.17;;
45764;SDS011;31474;45.332;10.230;2022-08-25T15:08:19;4.68;;;1.60;;
45764;SDS011;31474;45.332;10.230;2022-08-25T15:11:03;2.83;;;1.60;;
45764;SDS011;31474;45.332;10.230;2022-08-25T15:13:29;2.35;;;1.77;;
45764;SDS011;31474;45.332;10.230;2022-08-25T15:15:55;4.85;;;1.63;;
45764;SDS011;31474;45.332;10.230;2022-08-25T15:18:20;6.63;;;1.77;;
45764;SDS011;31474;45.332;10.230;2022-08-25T15:20:47;2.63;;;1.92;;
45764;SDS011;31474;45.332;10.230;2022-08-25T15:23:13;1.85;;;1.58;;
45764;SDS011;31474;45.332;10.230;2022-08-25T15:25:39;2.50;;;1.67;;
45764;SDS011;31474;45.332;10.230;2022-08-25T15:28:06;2.20;;;1.50;;
45764;SDS011;31474;45.332;10.230;2022-08-25T15:30:33;2.13;;;1.63;;
45764;SDS011;31474;45.332;10.230;2022-08-25T15:33:00;2.72;;;1.75;;
45764;SDS011;31474;45.332;10.230;2022-08-25T15:35:26;2.17;;;1.80;;
45764;SDS011;31474;45.332;10.230;2022-08-25T15:37:52;4.15;;;1.63;;
45764;SDS011;31474;45.332;10.230;2022-08-25T15:40:18;3.47;;;1.50;;
45764;SDS011;31474;45.332;10.230;2022-08-25T15:42:43;2.90;;;1.67;;
45764;SDS011;31474;45.332;10.230;2022-08-25T15:45:10;5.15;;;1.70;;
45764;SDS011;31474;45.332;10.230;2022-08-25T15:47:36;4.65;;;1.80;;
45764;SDS011;31474;45.332;10.230;2022-08-25T15:50:06;6.45;;;1.90;;
45764;SDS011;31474;45.332;10.230;2022-08-25T15:52:35;3.25;;;1.85;;
45764;SDS011;31474;45.332;10.230;2022-08-25T15:55:01;3.30;;;1.60;;
45764;SDS011;31474;45.332;10.230;2022-08-25T15:57:27;3.63;;;1.50;;
45764;SDS011;31474;45.332;10.230;2022-08-25T15:59:53;4.13;;;1.77;;
45764;SDS011;31474;45.332;10.230;2022-08-25T16:02:19;3.63;;;1.88;;
45764;SDS011;31474;45.332;10.230;2022-08-25T16:04:45;6.82;;;1.45;;
45764;SDS011;31474;45.332;10.230;2022-08-25T16:07:11;3.08;;;1.65;;
45764;SDS011;31474;45.332;10.230;2022-08-25T16:09:37;5.22;;;2.22;;
45764;SDS011;31474;45.332;10.230;2022-08-25T16:12:03;4.95;;;2.17;;
45764;SDS011;31474;45.332;10.230;2022-08-25T16:14:29;2.05;;;1.85;;
45764;SDS011;31474;45.332;10.230;2022-08-25T16:16:54;2.30;;;1.90;;
45764;SDS011;31474;45.332;10.230;2022-08-25T16:19:21;2.60;;;1.80;;
45764;SDS011;31474;45.332;10.230;2022-08-25T16:21:47;2.97;;;1.90;;
45764;SDS011;31474;45.332;10.230;2022-08-25T16:24:12;4.20;;;1.80;;
45764;SDS011;31474;45.332;10.230;2022-08-25T16:26:38;4.68;;;2.33;;
45764;SDS011;31474;45.332;10.230;2022-08-25T16:29:06;4.13;;;1.90;;
45764;SDS011;31474;45.332;10.230;2022-08-25T16:31:33;3.55;;;1.75;;
45764;SDS011;31474;45.332;10.230;2022-08-25T16:33:59;2.42;;;1.92;;
45764;SDS011;31474;45.332;10.230;2022-08-25T16:36:25;3.60;;;2.03;;
45764;SDS011;31474;45.332;10.230;2022-08-25T16:38:52;3.63;;;1.77;;
45764;SDS011;31474;45.332;10.230;2022-08-25T16:41:20;2.58;;;1.70;;
45764;SDS011;31474;45.332;10.230;2022-08-25T16:43:48;5.28;;;1.98;;
45764;SDS011;31474;45.332;10.230;2022-08-25T16:46:15;4.18;;;1.70;;
45764;SDS011;31474;45.332;10.230;2022-08-25T16:48:43;6.97;;;2.13;;
45764;SDS011;31474;45.332;10.230;2022-08-25T16:51:13;3.45;;;2.58;;